sensor_id;sensor_type;location;lat;lon;timestamp;temperature;humidity
15906;DHT22;8051;50.820;4.884;2023-04-24T00:02:11;9.10;99.90
15906;DHT22;8051;50.820;4.884;2023-04-24T00:04:39;9.10;99.90
15906;DHT22;8051;50.820;4.884;2023-04-24T00:07:07;9.10;99.90
15906;DHT22;8051;50.820;4.884;2023-04-24T00:09:35;9.10;99.90
15906;DHT22;8051;50.820;4.884;2023-04-24T00:12:04;9.10;99.90
15906;DHT22;8051;50.820;4.884;2023-04-24T00:14:32;9.10;99.90
15906;DHT22;8051;50.820;4.884;2023-04-24T00:17:00;9.10;99.90
15906;DHT22;8051;50.820;4.884;2023-04-24T00:19:28;9.10;99.90
15906;DHT22;8051;50.820;4.884;2023-04-24T00:21:56;9.10;99.90
15906;DHT22;8051;50.820;4.884;2023-04-24T00:24:23;9.10;99.90
15906;DHT22;8051;50.820;4.884;2023-04-24T00:26:51;9.10;99.90
15906;DHT22;8051;50.820;4.884;2023-04-24T00:29:19;9.10;99.90
15906;DHT22;8051;50.820;4.884;2023-04-24T00:31:47;9.10;99.90
15906;DHT22;8051;50.820;4.884;2023-04-24T00:34:14;9.10;99.90
15906;DHT22;8051;50.820;4.884;2023-04-24T00:36:42;9.10;99.90
15906;DHT22;8051;50.820;4.884;2023-04-24T00:39:09;9.10;99.90
15906;DHT22;8051;50.820;4.884;2023-04-24T00:41:37;9.10;99.90
15906;DHT22;8051;50.820;4.884;2023-04-24T00:44:04;9.10;99.90
15906;DHT22;8051;50.820;4.884;2023-04-24T00:46:33;9.10;99.90
15906;DHT22;8051;50.820;4.884;2023-04-24T00:49:01;9.10;99.90
15906;DHT22;8051;50.820;4.884;2023-04-24T00:51:29;9.10;99.90
15906;DHT22;8051;50.820;4.884;2023-04-24T00:53:58;9.10;99.90
15906;DHT22;8051;50.820;4.884;2023-04-24T00:56:25;9.10;99.90
15906;DHT22;8051;50.820;4.884;2023-04-24T00:58:53;9.10;99.90
15906;DHT22;8051;50.820;4.884;2023-04-24T01:01:21;9.10;99.90
15906;DHT22;8051;50.820;4.884;2023-04-24T01:03:51;9.10;99.90
15906;DHT22;8051;50.820;4.884;2023-04-24T01:06:19;9.10;99.90
15906;DHT22;8051;50.820;4.884;2023-04-24T01:08:46;9.10;99.90
15906;DHT22;8051;50.820;4.884;2023-04-24T01:11:15;9.10;99.90
15906;DHT22;8051;50.820;4.884;2023-04-24T01:13:42;9.10;99.90
15906;DHT22;8051;50.820;4.884;2023-04-24T01:16:09;9.10;99.90
15906;DHT22;8051;50.820;4.884;2023-04-24T01:18:37;9.10;99.90
15906;DHT22;8051;50.820;4.884;2023-04-24T01:21:08;9.10;99.90
15906;DHT22;8051;50.820;4.884;2023-04-24T01:23:38;9.10;99.90
15906;DHT22;8051;50.820;4.884;2023-04-24T01:26:06;9.10;99.90
15906;DHT22;8051;50.820;4.884;2023-04-24T01:28:33;9.00;99.90
15906;DHT22;8051;50.820;4.884;2023-04-24T01:31:01;8.90;99.90
15906;DHT22;8051;50.820;4.884;2023-04-24T01:33:28;8.80;99.90
15906;DHT22;8051;50.820;4.884;2023-04-24T01:35:56;8.70;99.90
15906;DHT22;8051;50.820;4.884;2023-04-24T01:38:24;8.60;99.90
15906;DHT22;8051;50.820;4.884;2023-04-24T01:40:53;8.50;99.90
15906;DHT22;8051;50.820;4.884;2023-04-24T01:43:22;8.50;99.90
15906;DHT22;8051;50.820;4.884;2023-04-24T01:45:49;8.50;99.90
15906;DHT22;8051;50.820;4.884;2023-04-24T01:48:16;8.50;99.90
15906;DHT22;8051;50.820;4.884;2023-04-24T01:50:44;8.50;99.90
15906;DHT22;8051;50.820;4.884;2023-04-24T01:53:11;8.40;99.90
15906;DHT22;8051;50.820;4.884;2023-04-24T01:55:39;8.40;99.90
15906;DHT22;8051;50.820;4.884;2023-04-24T01:58:08;8.30;99.90
15906;DHT22;8051;50.820;4.884;2023-04-24T02:00:36;8.30;99.90
15906;DHT22;8051;50.820;4.884;2023-04-24T02:03:04;8.30;99.90
15906;DHT22;8051;50.820;4.884;2023-04-24T02:05:31;8.20;99.90
15906;DHT22;8051;50.820;4.884;2023-04-24T02:07:59;8.10;99.90
15906;DHT22;8051;50.820;4.884;2023-04-24T02:10:26;8.00;99.90
15906;DHT22;8051;50.820;4.884;2023-04-24T02:12:54;8.00;99.90
15906;DHT22;8051;50.820;4.884;2023-04-24T02:15:23;8.00;99.90
15906;DHT22;8051;50.820;4.884;2023-04-24T02:17:50;7.90;99.90
15906;DHT22;8051;50.820;4.884;2023-04-24T02:20:17;7.90;99.90
15906;DHT22;8051;50.820;4.884;2023-04-24T02:22:45;7.90;99.90
15906;DHT22;8051;50.820;4.884;2023-04-24T02:25:12;7.90;99.90
15906;DHT22;8051;50.820;4.884;2023-04-24T02:27:40;7.90;99.90
15906;DHT22;8051;50.820;4.884;2023-04-24T02:30:09;7.90;99.90
15906;DHT22;8051;50.820;4.884;2023-04-24T02:32:38;7.90;99.90
15906;DHT22;8051;50.820;4.884;2023-04-24T02:35:06;7.90;99.90
15906;DHT22;8051;50.820;4.884;2023-04-24T02:37:34;7.90;99.90
15906;DHT22;8051;50.820;4.884;2023-04-24T02:40:01;7.90;99.90
15906;DHT22;8051;50.820;4.884;2023-04-24T02:42:29;7.90;99.90
15906;DHT22;8051;50.820;4.884;2023-04-24T02:44:56;8.00;99.90
15906;DHT22;8051;50.820;4.884;2023-04-24T02:47:24;8.00;99.90
15906;DHT22;8051;50.820;4.884;2023-04-24T02:49:53;8.00;99.90
15906;DHT22;8051;50.820;4.884;2023-04-24T02:52:20;7.90;99.90
15906;DHT22;8051;50.820;4.884;2023-04-24T02:54:48;7.90;99.90
15906;DHT22;8051;50.820;4.884;2023-04-24T02:57:15;8.00;99.90
15906;DHT22;8051;50.820;4.884;2023-04-24T02:59:42;8.00;99.90
15906;DHT22;8051;50.820;4.884;2023-04-24T03:02:10;8.00;99.90
15906;DHT22;8051;50.820;4.884;2023-04-24T03:04:37;8.00;99.90
15906;DHT22;8051;50.820;4.884;2023-04-24T03:07:07;8.00;99.90
15906;DHT22;8051;50.820;4.884;2023-04-24T03:09:34;8.00;99.90
15906;DHT22;8051;50.820;4.884;2023-04-24T03:12:02;8.00;99.90
15906;DHT22;8051;50.820;4.884;2023-04-24T03:14:29;8.10;99.90
15906;DHT22;8051;50.820;4.884;2023-04-24T03:16:57;8.10;99.90
15906;DHT22;8051;50.820;4.884;2023-04-24T03:19:25;8.10;99.90
15906;DHT22;8051;50.820;4.884;2023-04-24T03:21:53;8.10;99.90
15906;DHT22;8051;50.820;4.884;2023-04-24T03:24:21;8.10;99.90
15906;DHT22;8051;50.820;4.884;2023-04-24T03:26:49;8.10;99.90
15906;DHT22;8051;50.820;4.884;2023-04-24T03:29:16;8.00;99.90
15906;DHT22;8051;50.820;4.884;2023-04-24T03:31:44;8.00;99.90
15906;DHT22;8051;50.820;4.884;2023-04-24T03:34:11;8.00;99.90
15906;DHT22;8051;50.820;4.884;2023-04-24T03:36:39;8.00;99.90
15906;DHT22;8051;50.820;4.884;2023-04-24T03:39:06;7.90;99.90
15906;DHT22;8051;50.820;4.884;2023-04-24T03:41:35;7.90;99.90
15906;DHT22;8051;50.820;4.884;2023-04-24T03:44:02;7.90;99.90
15906;DHT22;8051;50.820;4.884;2023-04-24T03:46:30;7.90;99.90
15906;DHT22;8051;50.820;4.884;2023-04-24T03:48:57;7.80;99.90
15906;DHT22;8051;50.820;4.884;2023-04-24T03:51:25;7.80;99.90
15906;DHT22;8051;50.820;4.884;2023-04-24T03:53:53;7.80;99.90
15906;DHT22;8051;50.820;4.884;2023-04-24T03:56:21;7.80;99.90
15906;DHT22;8051;50.820;4.884;2023-04-24T03:58:49;7.80;99.90
15906;DHT22;8051;50.820;4.884;2023-04-24T04:01:17;7.80;99.90
15906;DHT22;8051;50.820;4.884;2023-04-24T04:03:46;7.80;99.90
15906;DHT22;8051;50.820;4.884;2023-04-24T04:06:14;7.80;99.90
15906;DHT22;8051;50.820;4.884;2023-04-24T04:08:41;7.70;99.90
15906;DHT22;8051;50.820;4.884;2023-04-24T04:11:08;7.70;99.90
15906;DHT22;8051;50.820;4.884;2023-04-24T04:13:36;7.70;99.90
15906;DHT22;8051;50.820;4.884;2023-04-24T04:16:05;7.70;99.90
15906;DHT22;8051;50.820;4.884;2023-04-24T04:18:32;7.70;99.90
15906;DHT22;8051;50.820;4.884;2023-04-24T04:21:00;7.70;99.90
15906;DHT22;8051;50.820;4.884;2023-04-24T04:23:27;7.70;99.90
15906;DHT22;8051;50.820;4.884;2023-04-24T04:25:55;7.60;99.90
15906;DHT22;8051;50.820;4.884;2023-04-24T04:28:22;7.70;99.90
15906;DHT22;8051;50.820;4.884;2023-04-24T04:30:50;7.60;99.90
15906;DHT22;8051;50.820;4.884;2023-04-24T04:33:21;7.60;99.90
15906;DHT22;8051;50.820;4.884;2023-04-24T04:35:48;7.60;99.90
15906;DHT22;8051;50.820;4.884;2023-04-24T04:38:18;7.60;99.90
15906;DHT22;8051;50.820;4.884;2023-04-24T04:40:46;7.60;99.90
15906;DHT22;8051;50.820;4.884;2023-04-24T04:43:13;7.60;99.90
15906;DHT22;8051;50.820;4.884;2023-04-24T04:45:41;7.60;99.90
15906;DHT22;8051;50.820;4.884;2023-04-24T04:48:09;7.60;99.90
15906;DHT22;8051;50.820;4.884;2023-04-24T04:50:40;7.60;99.90
15906;DHT22;8051;50.820;4.884;2023-04-24T04:53:08;7.60;99.90
15906;DHT22;8051;50.820;4.884;2023-04-24T04:55:36;7.60;99.90
15906;DHT22;8051;50.820;4.884;2023-04-24T04:58:03;7.60;99.90
15906;DHT22;8051;50.820;4.884;2023-04-24T05:00:31;7.70;99.90
15906;DHT22;8051;50.820;4.884;2023-04-24T05:03:01;7.70;99.90
15906;DHT22;8051;50.820;4.884;2023-04-24T05:05:29;7.70;99.90
15906;DHT22;8051;50.820;4.884;2023-04-24T05:07:57;7.70;99.90
15906;DHT22;8051;50.820;4.884;2023-04-24T05:10:25;7.70;99.90
15906;DHT22;8051;50.820;4.884;2023-04-24T05:12:52;7.70;99.90
15906;DHT22;8051;50.820;4.884;2023-04-24T05:15:20;7.70;99.90
15906;DHT22;8051;50.820;4.884;2023-04-24T05:17:47;7.70;99.90
15906;DHT22;8051;50.820;4.884;2023-04-24T05:20:15;7.70;99.90
15906;DHT22;8051;50.820;4.884;2023-04-24T05:22:43;7.70;99.90
15906;DHT22;8051;50.820;4.884;2023-04-24T05:25:12;7.70;99.90
15906;DHT22;8051;50.820;4.884;2023-04-24T05:27:40;7.60;99.90
15906;DHT22;8051;50.820;4.884;2023-04-24T05:30:08;7.70;99.90
15906;DHT22;8051;50.820;4.884;2023-04-24T05:32:36;7.60;99.90
15906;DHT22;8051;50.820;4.884;2023-04-24T05:35:04;7.60;99.90
15906;DHT22;8051;50.820;4.884;2023-04-24T05:37:32;7.60;99.90
15906;DHT22;8051;50.820;4.884;2023-04-24T05:39:59;7.60;99.90
15906;DHT22;8051;50.820;4.884;2023-04-24T05:42:28;7.60;99.90
15906;DHT22;8051;50.820;4.884;2023-04-24T05:44:56;7.60;99.90
15906;DHT22;8051;50.820;4.884;2023-04-24T05:47:23;7.60;99.90
15906;DHT22;8051;50.820;4.884;2023-04-24T05:49:52;7.60;99.90
15906;DHT22;8051;50.820;4.884;2023-04-24T05:52:20;7.60;99.90
15906;DHT22;8051;50.820;4.884;2023-04-24T05:54:47;7.50;99.90
15906;DHT22;8051;50.820;4.884;2023-04-24T05:57:15;7.50;99.90
15906;DHT22;8051;50.820;4.884;2023-04-24T05:59:44;7.60;99.90
15906;DHT22;8051;50.820;4.884;2023-04-24T06:02:11;7.50;99.90
15906;DHT22;8051;50.820;4.884;2023-04-24T06:04:38;7.50;99.90
15906;DHT22;8051;50.820;4.884;2023-04-24T06:07:06;7.50;99.90
15906;DHT22;8051;50.820;4.884;2023-04-24T06:09:33;7.50;99.90
15906;DHT22;8051;50.820;4.884;2023-04-24T06:12:01;7.40;99.90
15906;DHT22;8051;50.820;4.884;2023-04-24T06:14:28;7.40;99.90
15906;DHT22;8051;50.820;4.884;2023-04-24T06:16:57;7.40;99.90
15906;DHT22;8051;50.820;4.884;2023-04-24T06:19:24;7.40;99.90
15906;DHT22;8051;50.820;4.884;2023-04-24T06:21:52;7.50;99.90
15906;DHT22;8051;50.820;4.884;2023-04-24T06:24:19;7.40;99.90
15906;DHT22;8051;50.820;4.884;2023-04-24T06:26:47;7.50;99.90
15906;DHT22;8051;50.820;4.884;2023-04-24T06:29:14;7.50;99.90
15906;DHT22;8051;50.820;4.884;2023-04-24T06:31:42;7.50;99.90
15906;DHT22;8051;50.820;4.884;2023-04-24T06:34:11;7.50;99.90
15906;DHT22;8051;50.820;4.884;2023-04-24T06:36:38;7.40;99.90
15906;DHT22;8051;50.820;4.884;2023-04-24T06:39:06;7.50;99.90
15906;DHT22;8051;50.820;4.884;2023-04-24T06:41:33;7.50;99.90
15906;DHT22;8051;50.820;4.884;2023-04-24T06:44:01;7.50;99.90
15906;DHT22;8051;50.820;4.884;2023-04-24T06:46:28;7.50;99.90
15906;DHT22;8051;50.820;4.884;2023-04-24T06:48:56;7.50;99.90
15906;DHT22;8051;50.820;4.884;2023-04-24T06:51:25;7.50;99.90
15906;DHT22;8051;50.820;4.884;2023-04-24T06:53:53;7.50;99.90
15906;DHT22;8051;50.820;4.884;2023-04-24T06:56:22;7.50;99.90
15906;DHT22;8051;50.820;4.884;2023-04-24T06:58:49;7.40;99.90
15906;DHT22;8051;50.820;4.884;2023-04-24T07:01:17;7.50;99.90
15906;DHT22;8051;50.820;4.884;2023-04-24T07:03:44;7.50;99.90
15906;DHT22;8051;50.820;4.884;2023-04-24T07:06:11;7.60;99.90
15906;DHT22;8051;50.820;4.884;2023-04-24T07:08:41;7.60;99.90
15906;DHT22;8051;50.820;4.884;2023-04-24T07:11:09;7.60;99.90
15906;DHT22;8051;50.820;4.884;2023-04-24T07:13:36;7.60;99.90
15906;DHT22;8051;50.820;4.884;2023-04-24T07:16:07;7.70;99.90
15906;DHT22;8051;50.820;4.884;2023-04-24T07:18:35;7.80;99.90
15906;DHT22;8051;50.820;4.884;2023-04-24T07:21:03;7.80;99.90
15906;DHT22;8051;50.820;4.884;2023-04-24T07:23:30;7.90;99.90
15906;DHT22;8051;50.820;4.884;2023-04-24T07:25:59;7.90;99.90
15906;DHT22;8051;50.820;4.884;2023-04-24T07:28:27;7.90;99.90
15906;DHT22;8051;50.820;4.884;2023-04-24T07:30:56;8.00;99.90
15906;DHT22;8051;50.820;4.884;2023-04-24T07:33:25;8.00;99.90
15906;DHT22;8051;50.820;4.884;2023-04-24T07:35:53;8.10;99.90
15906;DHT22;8051;50.820;4.884;2023-04-24T07:38:20;8.30;99.90
15906;DHT22;8051;50.820;4.884;2023-04-24T07:40:48;8.30;99.90
15906;DHT22;8051;50.820;4.884;2023-04-24T07:43:17;8.30;99.90
15906;DHT22;8051;50.820;4.884;2023-04-24T07:45:45;8.30;99.90
15906;DHT22;8051;50.820;4.884;2023-04-24T07:48:12;8.20;99.90
15906;DHT22;8051;50.820;4.884;2023-04-24T07:50:42;8.10;99.90
15906;DHT22;8051;50.820;4.884;2023-04-24T07:53:09;8.10;99.90
15906;DHT22;8051;50.820;4.884;2023-04-24T07:55:37;8.00;99.90
15906;DHT22;8051;50.820;4.884;2023-04-24T07:58:04;8.00;99.90
15906;DHT22;8051;50.820;4.884;2023-04-24T08:00:33;8.00;99.90
15906;DHT22;8051;50.820;4.884;2023-04-24T08:03:01;8.00;99.90
15906;DHT22;8051;50.820;4.884;2023-04-24T08:05:29;8.00;99.90
15906;DHT22;8051;50.820;4.884;2023-04-24T08:07:56;8.10;99.90
15906;DHT22;8051;50.820;4.884;2023-04-24T08:10:24;8.10;99.90
15906;DHT22;8051;50.820;4.884;2023-04-24T08:12:52;8.20;99.90
15906;DHT22;8051;50.820;4.884;2023-04-24T08:15:21;8.20;99.90
15906;DHT22;8051;50.820;4.884;2023-04-24T08:17:50;8.30;99.90
15906;DHT22;8051;50.820;4.884;2023-04-24T08:20:17;8.20;99.90
15906;DHT22;8051;50.820;4.884;2023-04-24T08:22:45;8.20;99.90
15906;DHT22;8051;50.820;4.884;2023-04-24T08:25:14;8.20;99.90
15906;DHT22;8051;50.820;4.884;2023-04-24T08:27:42;8.30;99.90
15906;DHT22;8051;50.820;4.884;2023-04-24T08:30:10;8.70;99.90
15906;DHT22;8051;50.820;4.884;2023-04-24T08:32:37;9.00;99.90
15906;DHT22;8051;50.820;4.884;2023-04-24T08:35:07;9.40;99.90
15906;DHT22;8051;50.820;4.884;2023-04-24T08:37:36;9.70;99.90
15906;DHT22;8051;50.820;4.884;2023-04-24T08:40:10;9.80;99.90
15906;DHT22;8051;50.820;4.884;2023-04-24T08:42:39;9.90;99.90
15906;DHT22;8051;50.820;4.884;2023-04-24T08:45:10;10.10;99.90
15906;DHT22;8051;50.820;4.884;2023-04-24T08:47:39;10.20;99.90
15906;DHT22;8051;50.820;4.884;2023-04-24T08:50:09;9.80;99.90
15906;DHT22;8051;50.820;4.884;2023-04-24T08:52:38;9.20;99.90
15906;DHT22;8051;50.820;4.884;2023-04-24T08:55:06;8.90;99.90
15906;DHT22;8051;50.820;4.884;2023-04-24T08:57:34;8.90;99.90
15906;DHT22;8051;50.820;4.884;2023-04-24T09:00:05;8.90;99.90
15906;DHT22;8051;50.820;4.884;2023-04-24T09:02:33;9.00;99.90
15906;DHT22;8051;50.820;4.884;2023-04-24T09:05:02;9.20;99.90
15906;DHT22;8051;50.820;4.884;2023-04-24T09:07:33;9.40;99.90
15906;DHT22;8051;50.820;4.884;2023-04-24T09:10:03;9.60;99.90
15906;DHT22;8051;50.820;4.884;2023-04-24T09:12:30;9.70;99.90
15906;DHT22;8051;50.820;4.884;2023-04-24T09:14:58;9.80;99.90
15906;DHT22;8051;50.820;4.884;2023-04-24T09:17:27;10.10;99.90
15906;DHT22;8051;50.820;4.884;2023-04-24T09:19:55;10.20;99.90
15906;DHT22;8051;50.820;4.884;2023-04-24T09:22:22;10.20;99.90
15906;DHT22;8051;50.820;4.884;2023-04-24T09:25:03;10.10;99.90
15906;DHT22;8051;50.820;4.884;2023-04-24T09:27:33;9.90;99.90
15906;DHT22;8051;50.820;4.884;2023-04-24T09:30:01;9.90;99.90
15906;DHT22;8051;50.820;4.884;2023-04-24T09:32:28;10.00;99.90
15906;DHT22;8051;50.820;4.884;2023-04-24T09:35:11;10.20;99.90
15906;DHT22;8051;50.820;4.884;2023-04-24T09:37:40;10.30;99.90
15906;DHT22;8051;50.820;4.884;2023-04-24T09:40:11;10.30;99.90
15906;DHT22;8051;50.820;4.884;2023-04-24T09:42:39;10.40;99.90
15906;DHT22;8051;50.820;4.884;2023-04-24T09:45:10;10.40;99.90
15906;DHT22;8051;50.820;4.884;2023-04-24T09:47:38;10.50;99.90
15906;DHT22;8051;50.820;4.884;2023-04-24T09:50:10;10.70;99.90
15906;DHT22;8051;50.820;4.884;2023-04-24T09:52:40;11.00;99.90
15906;DHT22;8051;50.820;4.884;2023-04-24T09:55:15;11.30;99.90
15906;DHT22;8051;50.820;4.884;2023-04-24T09:57:50;11.30;99.90
15906;DHT22;8051;50.820;4.884;2023-04-24T10:00:21;11.20;99.90
15906;DHT22;8051;50.820;4.884;2023-04-24T10:02:55;11.00;99.90
15906;DHT22;8051;50.820;4.884;2023-04-24T10:05:24;10.90;99.90
15906;DHT22;8051;50.820;4.884;2023-04-24T10:07:52;10.80;99.90
15906;DHT22;8051;50.820;4.884;2023-04-24T10:10:24;10.80;99.90
15906;DHT22;8051;50.820;4.884;2023-04-24T10:12:52;10.80;99.90
15906;DHT22;8051;50.820;4.884;2023-04-24T10:15:20;10.70;99.90
15906;DHT22;8051;50.820;4.884;2023-04-24T10:17:48;10.60;99.90
15906;DHT22;8051;50.820;4.884;2023-04-24T10:20:20;10.70;99.90
15906;DHT22;8051;50.820;4.884;2023-04-24T10:22:49;10.70;99.90
15906;DHT22;8051;50.820;4.884;2023-04-24T10:25:21;10.70;99.90
15906;DHT22;8051;50.820;4.884;2023-04-24T10:27:51;10.90;99.90
15906;DHT22;8051;50.820;4.884;2023-04-24T10:30:19;10.90;99.90
15906;DHT22;8051;50.820;4.884;2023-04-24T10:32:47;11.00;99.90
15906;DHT22;8051;50.820;4.884;2023-04-24T10:35:15;11.20;99.90
15906;DHT22;8051;50.820;4.884;2023-04-24T10:37:48;11.30;99.90
15906;DHT22;8051;50.820;4.884;2023-04-24T10:40:17;11.50;99.90
15906;DHT22;8051;50.820;4.884;2023-04-24T10:42:47;11.80;99.90
15906;DHT22;8051;50.820;4.884;2023-04-24T10:45:21;12.00;99.90
15906;DHT22;8051;50.820;4.884;2023-04-24T10:47:52;12.20;99.90
15906;DHT22;8051;50.820;4.884;2023-04-24T10:50:20;12.30;99.90
15906;DHT22;8051;50.820;4.884;2023-04-24T10:52:49;12.20;99.90
15906;DHT22;8051;50.820;4.884;2023-04-24T10:55:40;12.00;99.90
15906;DHT22;8051;50.820;4.884;2023-04-24T10:58:08;12.10;99.90
15906;DHT22;8051;50.820;4.884;2023-04-24T11:00:38;12.20;99.90
15906;DHT22;8051;50.820;4.884;2023-04-24T11:03:06;12.10;99.90
15906;DHT22;8051;50.820;4.884;2023-04-24T11:05:51;11.90;99.90
15906;DHT22;8051;50.820;4.884;2023-04-24T11:08:27;11.50;99.90
15906;DHT22;8051;50.820;4.884;2023-04-24T11:10:57;11.30;99.90
15906;DHT22;8051;50.820;4.884;2023-04-24T11:13:25;11.20;99.90
15906;DHT22;8051;50.820;4.884;2023-04-24T11:16:13;11.40;99.90
15906;DHT22;8051;50.820;4.884;2023-04-24T11:18:42;12.10;99.90
15906;DHT22;8051;50.820;4.884;2023-04-24T11:21:17;12.40;99.90
15906;DHT22;8051;50.820;4.884;2023-04-24T11:23:45;12.60;99.90
15906;DHT22;8051;50.820;4.884;2023-04-24T11:26:16;12.90;99.90
15906;DHT22;8051;50.820;4.884;2023-04-24T11:28:45;12.70;99.90
15906;DHT22;8051;50.820;4.884;2023-04-24T11:31:37;12.80;99.90
15906;DHT22;8051;50.820;4.884;2023-04-24T11:34:08;12.90;99.90
15906;DHT22;8051;50.820;4.884;2023-04-24T11:36:36;12.70;99.90
15906;DHT22;8051;50.820;4.884;2023-04-24T11:39:04;12.50;99.90
15906;DHT22;8051;50.820;4.884;2023-04-24T11:41:33;12.50;99.90
15906;DHT22;8051;50.820;4.884;2023-04-24T11:44:01;12.30;99.90
15906;DHT22;8051;50.820;4.884;2023-04-24T11:46:30;12.20;99.90
15906;DHT22;8051;50.820;4.884;2023-04-24T11:48:59;12.10;99.90
15906;DHT22;8051;50.820;4.884;2023-04-24T11:51:27;11.90;99.90
15906;DHT22;8051;50.820;4.884;2023-04-24T11:53:55;11.90;99.90
15906;DHT22;8051;50.820;4.884;2023-04-24T11:56:23;12.00;99.90
15906;DHT22;8051;50.820;4.884;2023-04-24T11:58:52;12.00;99.90
15906;DHT22;8051;50.820;4.884;2023-04-24T12:01:21;12.10;99.90
15906;DHT22;8051;50.820;4.884;2023-04-24T12:03:49;12.10;99.90
15906;DHT22;8051;50.820;4.884;2023-04-24T12:06:19;12.30;99.90
15906;DHT22;8051;50.820;4.884;2023-04-24T12:08:47;12.30;99.90
15906;DHT22;8051;50.820;4.884;2023-04-24T12:11:16;12.20;99.90
15906;DHT22;8051;50.820;4.884;2023-04-24T12:13:46;12.30;99.90
15906;DHT22;8051;50.820;4.884;2023-04-24T12:16:13;12.40;99.90
15906;DHT22;8051;50.820;4.884;2023-04-24T12:18:45;12.50;99.90
15906;DHT22;8051;50.820;4.884;2023-04-24T12:21:16;12.60;99.90
15906;DHT22;8051;50.820;4.884;2023-04-24T12:23:45;12.70;99.90
15906;DHT22;8051;50.820;4.884;2023-04-24T12:26:16;12.60;99.90
15906;DHT22;8051;50.820;4.884;2023-04-24T12:28:46;12.70;99.90
15906;DHT22;8051;50.820;4.884;2023-04-24T12:31:14;13.20;99.90
15906;DHT22;8051;50.820;4.884;2023-04-24T12:33:41;13.30;99.90
15906;DHT22;8051;50.820;4.884;2023-04-24T12:36:10;13.10;99.90
15906;DHT22;8051;50.820;4.884;2023-04-24T12:38:39;13.10;99.90
15906;DHT22;8051;50.820;4.884;2023-04-24T12:41:13;12.90;99.90
15906;DHT22;8051;50.820;4.884;2023-04-24T12:43:51;12.90;99.90
15906;DHT22;8051;50.820;4.884;2023-04-24T12:46:19;13.00;99.90
15906;DHT22;8051;50.820;4.884;2023-04-24T12:48:46;12.80;99.90
15906;DHT22;8051;50.820;4.884;2023-04-24T12:51:14;12.70;99.90
15906;DHT22;8051;50.820;4.884;2023-04-24T12:53:41;12.70;99.90
15906;DHT22;8051;50.820;4.884;2023-04-24T12:56:08;12.70;99.90
15906;DHT22;8051;50.820;4.884;2023-04-24T12:58:37;12.60;99.90
15906;DHT22;8051;50.820;4.884;2023-04-24T13:01:05;12.80;99.90
15906;DHT22;8051;50.820;4.884;2023-04-24T13:03:32;13.20;99.90
15906;DHT22;8051;50.820;4.884;2023-04-24T13:06:00;13.20;99.90
15906;DHT22;8051;50.820;4.884;2023-04-24T13:08:27;12.90;99.90
15906;DHT22;8051;50.820;4.884;2023-04-24T13:10:55;12.60;99.90
15906;DHT22;8051;50.820;4.884;2023-04-24T13:13:22;12.70;99.90
15906;DHT22;8051;50.820;4.884;2023-04-24T13:15:51;12.70;99.90
15906;DHT22;8051;50.820;4.884;2023-04-24T13:18:18;12.80;99.90
15906;DHT22;8051;50.820;4.884;2023-04-24T13:20:46;13.00;99.90
15906;DHT22;8051;50.820;4.884;2023-04-24T13:23:13;13.10;99.90
15906;DHT22;8051;50.820;4.884;2023-04-24T13:25:41;13.00;99.90
15906;DHT22;8051;50.820;4.884;2023-04-24T13:28:09;12.80;99.90
15906;DHT22;8051;50.820;4.884;2023-04-24T13:30:37;12.60;99.90
15906;DHT22;8051;50.820;4.884;2023-04-24T13:33:06;12.50;99.90
15906;DHT22;8051;50.820;4.884;2023-04-24T13:35:33;12.50;99.90
15906;DHT22;8051;50.820;4.884;2023-04-24T13:38:00;12.50;99.90
15906;DHT22;8051;50.820;4.884;2023-04-24T13:40:31;12.40;99.90
15906;DHT22;8051;50.820;4.884;2023-04-24T13:42:59;12.60;99.90
15906;DHT22;8051;50.820;4.884;2023-04-24T13:45:26;12.50;99.90
15906;DHT22;8051;50.820;4.884;2023-04-24T13:47:54;12.80;99.90
15906;DHT22;8051;50.820;4.884;2023-04-24T13:50:24;13.00;99.90
15906;DHT22;8051;50.820;4.884;2023-04-24T13:52:51;13.30;99.90
15906;DHT22;8051;50.820;4.884;2023-04-24T13:55:20;13.30;99.90
15906;DHT22;8051;50.820;4.884;2023-04-24T13:57:47;13.20;99.90
15906;DHT22;8051;50.820;4.884;2023-04-24T14:00:15;13.30;99.90
15906;DHT22;8051;50.820;4.884;2023-04-24T14:02:43;13.50;99.90
15906;DHT22;8051;50.820;4.884;2023-04-24T14:05:11;13.70;99.90
15906;DHT22;8051;50.820;4.884;2023-04-24T14:07:39;13.70;99.90
15906;DHT22;8051;50.820;4.884;2023-04-24T14:10:08;13.90;99.90
15906;DHT22;8051;50.820;4.884;2023-04-24T14:12:36;14.00;99.90
15906;DHT22;8051;50.820;4.884;2023-04-24T14:15:04;13.90;99.90
15906;DHT22;8051;50.820;4.884;2023-04-24T14:17:32;13.80;99.90
15906;DHT22;8051;50.820;4.884;2023-04-24T14:19:59;13.60;99.90
15906;DHT22;8051;50.820;4.884;2023-04-24T14:22:26;13.40;99.90
15906;DHT22;8051;50.820;4.884;2023-04-24T14:24:55;13.40;99.90
15906;DHT22;8051;50.820;4.884;2023-04-24T14:27:23;13.40;99.90
15906;DHT22;8051;50.820;4.884;2023-04-24T14:29:51;13.00;99.90
15906;DHT22;8051;50.820;4.884;2023-04-24T14:32:19;13.00;99.90
15906;DHT22;8051;50.820;4.884;2023-04-24T14:34:46;12.90;99.90
15906;DHT22;8051;50.820;4.884;2023-04-24T14:37:14;12.90;99.90
15906;DHT22;8051;50.820;4.884;2023-04-24T14:39:42;13.00;99.90
15906;DHT22;8051;50.820;4.884;2023-04-24T14:42:11;13.10;99.90
15906;DHT22;8051;50.820;4.884;2023-04-24T14:44:39;13.10;99.90
15906;DHT22;8051;50.820;4.884;2023-04-24T14:47:06;13.00;99.90
15906;DHT22;8051;50.820;4.884;2023-04-24T14:49:33;13.00;99.90
15906;DHT22;8051;50.820;4.884;2023-04-24T14:52:01;13.10;99.90
15906;DHT22;8051;50.820;4.884;2023-04-24T14:54:29;13.10;99.90
15906;DHT22;8051;50.820;4.884;2023-04-24T14:56:57;12.90;99.90
15906;DHT22;8051;50.820;4.884;2023-04-24T14:59:25;12.90;99.90
15906;DHT22;8051;50.820;4.884;2023-04-24T15:01:54;13.10;99.90
15906;DHT22;8051;50.820;4.884;2023-04-24T15:04:23;13.40;99.90
15906;DHT22;8051;50.820;4.884;2023-04-24T15:06:51;13.60;99.90
15906;DHT22;8051;50.820;4.884;2023-04-24T15:09:19;13.40;99.90
15906;DHT22;8051;50.820;4.884;2023-04-24T15:11:48;13.20;99.90
15906;DHT22;8051;50.820;4.884;2023-04-24T15:14:15;13.10;99.90
15906;DHT22;8051;50.820;4.884;2023-04-24T15:16:44;12.80;99.90
15906;DHT22;8051;50.820;4.884;2023-04-24T15:19:12;12.60;99.90
15906;DHT22;8051;50.820;4.884;2023-04-24T15:21:39;12.50;99.90
15906;DHT22;8051;50.820;4.884;2023-04-24T15:24:08;12.40;99.90
15906;DHT22;8051;50.820;4.884;2023-04-24T15:26:36;12.40;99.90
15906;DHT22;8051;50.820;4.884;2023-04-24T15:29:03;12.30;99.90
15906;DHT22;8051;50.820;4.884;2023-04-24T15:31:30;12.20;99.90
15906;DHT22;8051;50.820;4.884;2023-04-24T15:33:59;12.10;99.90
15906;DHT22;8051;50.820;4.884;2023-04-24T15:36:27;12.10;99.90
15906;DHT22;8051;50.820;4.884;2023-04-24T15:38:54;12.20;99.90
15906;DHT22;8051;50.820;4.884;2023-04-24T15:41:22;12.40;99.90
15906;DHT22;8051;50.820;4.884;2023-04-24T15:43:49;12.60;99.90
15906;DHT22;8051;50.820;4.884;2023-04-24T15:46:17;12.60;99.90
15906;DHT22;8051;50.820;4.884;2023-04-24T15:48:44;12.80;99.90
15906;DHT22;8051;50.820;4.884;2023-04-24T15:51:13;12.60;99.90
15906;DHT22;8051;50.820;4.884;2023-04-24T15:53:41;12.30;99.90
15906;DHT22;8051;50.820;4.884;2023-04-24T15:56:08;12.40;99.90
15906;DHT22;8051;50.820;4.884;2023-04-24T15:58:36;12.30;99.90
15906;DHT22;8051;50.820;4.884;2023-04-24T16:01:03;12.20;99.90
15906;DHT22;8051;50.820;4.884;2023-04-24T16:03:31;12.10;99.90